Anglian Lady — VOLP — position and weather

sailwx.info

Track history (hours):
 
Tides and Currents Weather Stations Pressure Air Temp Water Temp Dewpoint Dewpoint Depression Visibility Wind Speed Wind Dir Waves Ship Positions

Anglian Lady

Last reported at 2018-Jul-22 11:11 UTC. Time now 2018-Jul-23 09:47 UTC.
Position N 45°19' W 085°39'.

Length 32 m.

Type: Tug. MMSI: 316002238.

Date/timePositionNaut miles runAvg speedWind from/ knotsBaromVisibWave heightAir tempDewpointWater temp
2018-Jul-22 11:11N 45°19' W 085°39'1 6.8
2018-Jul-22 10:58N 45°20' W 085°38'3 6.8
2018-Jul-22 10:30N 45°23' W 085°35'12 6.7
2018-Jul-22 08:47N 45°32' W 085°25'2 6.8
2018-Jul-22 08:30N 45°34' W 085°23'3 6.8
2018-Jul-22 08:00N 45°36' W 085°20'3 6.8
2018-Jul-22 07:30N 45°39' W 085°17'5 6.8
2018-Jul-22 06:43N 45°43' W 085°13'1 6.7
2018-Jul-22 06:30N 45°44' W 085°11'3 5.8
2018-Jul-22 05:55N 45°47' W 085°09'3 5.9
2018-Jul-22 05:29N 45°49' W 085°07'3 6.7
2018-Jul-22 05:00N 45°50' W 085°03'3 6.9
2018-Jul-22 04:30N 45°50' W 084°58'3 6.8
2018-Jul-22 04:00N 45°49' W 084°53'4 7.1
2018-Jul-22 03:30N 45°49' W 084°48'4 7.1
2018-Jul-22 03:00N 45°49' W 084°43'3 7.0
2018-Jul-22 02:30N 45°50' W 084°38'3 6.5
2018-Jul-22 02:00N 45°51' W 084°34'4 6.8
2018-Jul-22 01:29N 45°52' W 084°29'4 7.4
2018-Jul-22 00:59N 45°53' W 084°23'4 7.3
2018-Jul-22 00:29N 45°53' W 084°18'  
Track history (hours):
 
Tides and Currents Weather Stations Pressure Air Temp Water Temp Dewpoint Dewpoint Depression Visibility Wind Speed Wind Dir Waves Ship Positions

Anglian Lady

Last reported at 2018-Jul-22 11:11 UTC. Time now 2018-Jul-23 09:47 UTC.
Position N 45°19' W 085°39'.

Length 32 m.

Type: Tug. MMSI: 316002238.

Date/timePositionNaut miles runAvg speedWind from/ knotsBaromVisibWave heightAir tempDewpointWater temp
2018-Jul-22 11:11N 45°19' W 085°39'1 6.8
2018-Jul-22 10:58N 45°20' W 085°38'3 6.8
2018-Jul-22 10:30N 45°23' W 085°35'12 6.7
2018-Jul-22 08:47N 45°32' W 085°25'2 6.8
2018-Jul-22 08:30N 45°34' W 085°23'3 6.8
2018-Jul-22 08:00N 45°36' W 085°20'3 6.8
2018-Jul-22 07:30N 45°39' W 085°17'5 6.8
2018-Jul-22 06:43N 45°43' W 085°13'1 6.7
2018-Jul-22 06:30N 45°44' W 085°11'3 5.8
2018-Jul-22 05:55N 45°47' W 085°09'3 5.9
2018-Jul-22 05:29N 45°49' W 085°07'3 6.7
2018-Jul-22 05:00N 45°50' W 085°03'3 6.9
2018-Jul-22 04:30N 45°50' W 084°58'3 6.8
2018-Jul-22 04:00N 45°49' W 084°53'4 7.1
2018-Jul-22 03:30N 45°49' W 084°48'4 7.1
2018-Jul-22 03:00N 45°49' W 084°43'3 7.0
2018-Jul-22 02:30N 45°50' W 084°38'3 6.5
2018-Jul-22 02:00N 45°51' W 084°34'4 6.8
2018-Jul-22 01:29N 45°52' W 084°29'4 7.4
2018-Jul-22 00:59N 45°53' W 084°23'4 7.3
2018-Jul-22 00:29N 45°53' W 084°18'  

Dump ship's entire track history